createdAt,value
2022-11-07T00:00:20.798Z,9.21
2022-11-07T00:01:20.824Z,9.23
2022-11-07T00:02:20.799Z,9.22
2022-11-07T00:03:20.882Z,9.19
2022-11-07T00:04:20.747Z,9.22
2022-11-07T00:05:20.739Z,9.23
2022-11-07T00:06:20.758Z,9.28
2022-11-07T00:07:20.730Z,9.19
2022-11-07T00:08:20.711Z,9.21
2022-11-07T00:09:20.770Z,9.25
2022-11-07T00:10:20.682Z,9.31
2022-11-07T00:11:20.681Z,9.21
2022-11-07T00:12:20.695Z,9.23
2022-11-07T00:13:20.655Z,9.19
2022-11-07T00:14:20.638Z,9.25
2022-11-07T00:15:20.668Z,9.16
2022-11-07T00:16:20.615Z,9.22
2022-11-07T00:17:20.630Z,9.22
2022-11-07T00:18:20.613Z,9.21
2022-11-07T00:19:20.575Z,9.22
2022-11-07T00:20:20.601Z,9.18
2022-11-07T00:21:20.578Z,9.10
2022-11-07T00:22:20.565Z,9.22
2022-11-07T00:23:20.546Z,9.22
2022-11-07T00:24:20.521Z,9.19
2022-11-07T00:25:20.511Z,9.10
2022-11-07T00:26:20.506Z,9.14
2022-11-07T00:27:20.557Z,9.16
2022-11-07T00:28:20.482Z,9.11
2022-11-07T00:29:20.467Z,9.11
2022-11-07T00:30:20.466Z,9.13
2022-11-07T00:31:20.442Z,9.02
2022-11-07T00:32:20.440Z,9.02
2022-11-07T00:33:20.456Z,9.14
2022-11-07T00:34:20.412Z,9.03
2022-11-07T00:35:20.401Z,9.03
2022-11-07T00:36:20.388Z,9.04
2022-11-07T00:37:20.395Z,9.03
2022-11-07T00:38:20.390Z,9.03
2022-11-07T00:39:20.372Z,8.97
2022-11-07T00:40:20.347Z,8.88
2022-11-07T00:41:20.333Z,8.95
2022-11-07T00:42:20.323Z,8.92
2022-11-07T00:43:20.314Z,8.95
2022-11-07T00:44:20.307Z,8.82
2022-11-07T00:45:20.332Z,8.87
2022-11-07T00:46:20.279Z,8.87
2022-11-07T00:47:20.284Z,8.81
2022-11-07T00:48:20.260Z,8.78
2022-11-07T00:49:20.272Z,8.74
2022-11-07T00:50:20.240Z,8.78
2022-11-07T00:51:20.234Z,8.76
2022-11-07T00:52:20.217Z,8.67
2022-11-07T00:53:20.223Z,8.61
2022-11-07T00:54:20.215Z,8.78
2022-11-07T00:55:20.188Z,8.67
2022-11-07T00:56:20.165Z,8.71
2022-11-07T00:57:20.176Z,8.67
2022-11-07T00:58:20.154Z,8.64
2022-11-07T00:59:20.133Z,8.63
2022-11-07T01:00:20.147Z,8.61
2022-11-07T01:01:20.257Z,8.66
2022-11-07T01:02:20.283Z,8.69
2022-11-07T01:03:20.107Z,8.61
2022-11-07T01:04:20.078Z,8.61
2022-11-07T01:05:20.065Z,8.51
2022-11-07T01:06:20.067Z,8.66
2022-11-07T01:07:20.042Z,8.69
2022-11-07T01:08:20.035Z,8.66
2022-11-07T01:09:20.054Z,8.60
2022-11-07T01:10:20.032Z,8.53
2022-11-07T01:11:20.103Z,8.64
2022-11-07T01:12:19.989Z,8.55
2022-11-07T01:13:19.981Z,8.55
2022-11-07T01:14:19.962Z,8.55
2022-11-07T01:15:19.967Z,8.56
2022-11-07T01:16:19.948Z,8.55
2022-11-07T01:17:19.939Z,8.53
2022-11-07T01:18:19.930Z,8.55
2022-11-07T01:19:19.907Z,8.55
2022-11-07T01:20:19.896Z,8.52
2022-11-07T01:21:19.921Z,8.51
2022-11-07T01:22:19.876Z,8.60
2022-11-07T01:23:19.866Z,8.64
2022-11-07T01:24:19.859Z,8.51
2022-11-07T01:25:19.854Z,8.58
2022-11-07T01:26:19.936Z,8.55
2022-11-07T01:27:19.853Z,8.58
2022-11-07T01:28:19.931Z,8.56
2022-11-07T01:29:19.816Z,8.51
2022-11-07T01:30:19.791Z,8.51
2022-11-07T01:31:19.778Z,8.51
2022-11-07T01:32:19.792Z,8.58
2022-11-07T01:33:19.797Z,8.51
2022-11-07T01:34:19.747Z,8.42
2022-11-07T01:35:19.736Z,8.42
2022-11-07T01:36:19.719Z,8.48
2022-11-07T01:37:19.731Z,8.51
2022-11-07T01:38:19.717Z,8.48
2022-11-07T01:39:19.728Z,8.53
2022-11-07T01:40:19.679Z,8.44
2022-11-07T01:41:19.658Z,8.48
2022-11-07T01:42:19.681Z,8.51
2022-11-07T01:43:19.637Z,8.48
2022-11-07T01:44:19.637Z,8.52
2022-11-07T01:45:19.650Z,8.52
2022-11-07T01:46:19.604Z,8.49
2022-11-07T01:47:19.612Z,8.51
2022-11-07T01:48:19.578Z,8.53
2022-11-07T01:49:19.580Z,8.52
2022-11-07T01:50:19.563Z,8.56
2022-11-07T01:51:19.570Z,8.53
2022-11-07T01:52:19.537Z,8.55
2022-11-07T01:53:19.533Z,8.52
2022-11-07T01:54:19.516Z,8.55
2022-11-07T01:55:19.503Z,8.56
2022-11-07T01:56:19.494Z,8.55
2022-11-07T01:57:19.514Z,8.51
2022-11-07T01:58:19.500Z,8.49
2022-11-07T01:59:19.464Z,8.53
2022-11-07T02:00:19.448Z,8.52
2022-11-07T02:01:19.495Z,8.45
2022-11-07T02:02:19.571Z,8.52
2022-11-07T02:03:19.463Z,8.49
2022-11-07T02:04:19.404Z,8.38
2022-11-07T02:05:19.401Z,8.46
2022-11-07T02:06:19.387Z,8.31
2022-11-07T02:07:19.370Z,8.41
2022-11-07T02:08:19.359Z,8.46
2022-11-07T02:09:19.366Z,8.36
2022-11-07T02:10:19.335Z,8.33
2022-11-07T02:11:19.327Z,8.42
2022-11-07T02:12:19.317Z,8.38
2022-11-07T02:13:19.303Z,8.33
2022-11-07T02:14:19.335Z,8.44
2022-11-07T02:15:19.315Z,8.44
2022-11-07T02:16:19.269Z,8.41
2022-11-07T02:17:19.263Z,8.33
2022-11-07T02:18:19.243Z,8.42
2022-11-07T02:19:19.240Z,8.38
2022-11-07T02:20:19.225Z,8.55
2022-11-07T02:21:19.258Z,8.48
2022-11-07T02:22:19.202Z,8.51
2022-11-07T02:23:19.189Z,8.55
2022-11-07T02:24:19.216Z,8.56
2022-11-07T02:25:19.174Z,8.55
2022-11-07T02:26:19.150Z,8.61
2022-11-07T02:27:19.174Z,8.53
2022-11-07T02:28:19.134Z,8.52
2022-11-07T02:29:19.137Z,8.55
2022-11-07T02:30:19.138Z,8.60
2022-11-07T02:31:19.140Z,8.67
2022-11-07T02:32:19.093Z,8.64
2022-11-07T02:33:19.098Z,8.63
2022-11-07T02:34:19.070Z,8.67
2022-11-07T02:35:19.054Z,8.70
2022-11-07T02:36:19.044Z,8.66
2022-11-07T02:37:19.035Z,8.66
2022-11-07T02:38:19.022Z,8.79
2022-11-07T02:39:19.033Z,8.78
2022-11-07T02:40:18.999Z,8.67
2022-11-07T02:41:18.986Z,8.70
2022-11-07T02:42:18.978Z,8.69
2022-11-07T02:43:18.958Z,8.69
2022-11-07T02:44:18.954Z,8.71
2022-11-07T02:45:18.993Z,8.73
2022-11-07T02:46:18.956Z,8.79
2022-11-07T02:47:18.921Z,8.79
2022-11-07T02:48:18.910Z,8.78
2022-11-07T02:49:18.896Z,8.66
2022-11-07T02:50:18.884Z,8.64
2022-11-07T02:51:18.926Z,8.67
2022-11-07T02:52:18.860Z,8.69
2022-11-07T02:53:18.855Z,8.71
2022-11-07T02:54:18.837Z,8.66
2022-11-07T02:55:18.829Z,8.70
2022-11-07T02:56:18.816Z,8.61
2022-11-07T02:57:18.864Z,8.73
2022-11-07T02:58:18.822Z,8.70
2022-11-07T02:59:21.842Z,8.70
2022-11-07T03:00:19.770Z,8.63
2022-11-07T03:01:18.774Z,8.69
2022-11-07T03:02:18.907Z,8.69
2022-11-07T03:03:18.794Z,8.66
2022-11-07T03:04:18.737Z,8.61
2022-11-07T03:05:18.715Z,8.56
2022-11-07T03:06:18.716Z,8.63
2022-11-07T03:07:18.693Z,8.55
2022-11-07T03:08:18.689Z,8.66
2022-11-07T03:09:18.700Z,8.61
2022-11-07T03:10:18.686Z,8.64
2022-11-07T03:11:18.766Z,8.63
2022-11-07T03:12:18.642Z,8.67
2022-11-07T03:13:18.629Z,8.64
2022-11-07T03:14:18.666Z,8.60
2022-11-07T03:15:18.632Z,8.64
2022-11-07T03:16:18.616Z,8.58
2022-11-07T03:17:18.586Z,8.53
2022-11-07T03:18:18.590Z,8.53
2022-11-07T03:19:18.566Z,8.51
2022-11-07T03:20:18.547Z,8.64
2022-11-07T03:21:18.562Z,8.64
2022-11-07T03:22:18.534Z,8.66
2022-11-07T03:23:18.519Z,8.67
2022-11-07T03:24:18.499Z,8.58
2022-11-07T03:25:18.490Z,8.63
2022-11-07T03:26:18.509Z,8.64
2022-11-07T03:27:18.493Z,8.61
2022-11-07T03:28:18.567Z,8.53
2022-11-07T03:29:18.461Z,8.53
2022-11-07T03:30:18.435Z,8.53
2022-11-07T03:31:18.431Z,8.53
2022-11-07T03:32:18.408Z,8.51
2022-11-07T03:33:18.431Z,8.63
2022-11-07T03:34:18.417Z,8.56
2022-11-07T03:35:18.378Z,8.53
2022-11-07T03:36:18.371Z,8.63
2022-11-07T03:37:18.371Z,8.66
2022-11-07T03:38:18.344Z,8.61
2022-11-07T03:39:21.859Z,8.63
2022-11-07T03:40:19.328Z,8.71
2022-11-07T03:41:18.311Z,8.53
2022-11-07T03:42:18.311Z,8.52
2022-11-07T03:43:18.291Z,8.56
2022-11-07T03:44:18.299Z,8.56
2022-11-07T03:45:18.298Z,8.58
2022-11-07T03:46:18.253Z,8.53
2022-11-07T03:47:18.250Z,8.53
2022-11-07T03:48:18.231Z,8.51
2022-11-07T03:49:18.233Z,8.55
2022-11-07T03:50:18.242Z,8.55
2022-11-07T03:51:18.236Z,8.53
2022-11-07T03:52:18.193Z,8.56
2022-11-07T03:53:22.422Z,8.55
2022-11-07T03:54:19.174Z,8.51
2022-11-07T03:55:18.354Z,8.56
2022-11-07T03:56:18.143Z,8.53
2022-11-07T03:57:18.150Z,8.53
2022-11-07T03:58:18.127Z,8.56
2022-11-07T03:59:18.117Z,8.67
2022-11-07T04:00:18.105Z,8.66
2022-11-07T04:01:18.123Z,8.64
2022-11-07T04:02:18.274Z,8.60
2022-11-07T04:03:18.240Z,8.70
2022-11-07T04:04:18.054Z,8.67
2022-11-07T04:05:18.047Z,8.66
2022-11-07T04:06:18.201Z,8.66
2022-11-07T04:07:18.021Z,8.60
2022-11-07T04:08:18.016Z,8.51
2022-11-07T04:09:18.044Z,8.51
2022-11-07T04:10:17.990Z,8.58
2022-11-07T04:11:17.979Z,8.48
2022-11-07T04:12:17.961Z,8.49
2022-11-07T04:13:17.954Z,8.44
2022-11-07T04:14:18.047Z,8.42
2022-11-07T04:15:17.967Z,8.36
2022-11-07T04:16:17.983Z,8.38
2022-11-07T04:17:17.909Z,8.28
2022-11-07T04:18:17.901Z,8.36
2022-11-07T04:19:17.911Z,8.33
2022-11-07T04:20:17.875Z,8.30
2022-11-07T04:21:17.927Z,8.26
2022-11-07T04:22:17.878Z,8.28
2022-11-07T04:23:18.117Z,8.19
2022-11-07T04:24:17.832Z,8.19
2022-11-07T04:25:17.866Z,8.16
2022-11-07T04:26:17.808Z,8.15
2022-11-07T04:27:17.809Z,8.13
2022-11-07T04:28:17.859Z,8.20
2022-11-07T04:29:17.772Z,8.10
2022-11-07T04:30:17.779Z,8.13
2022-11-07T04:31:17.748Z,8.12
2022-11-07T04:32:17.739Z,8.12
2022-11-07T04:33:17.923Z,8.05
2022-11-07T04:34:17.723Z,7.98
2022-11-07T04:35:17.713Z,8.01
2022-11-07T04:36:17.691Z,7.97
2022-11-07T04:37:17.684Z,8.05
2022-11-07T04:38:17.699Z,7.98
2022-11-07T04:39:17.738Z,8.06
2022-11-07T04:40:17.713Z,7.98
2022-11-07T04:41:17.636Z,8.13
2022-11-07T04:42:17.635Z,8.05
2022-11-07T04:43:17.824Z,8.10
2022-11-07T04:44:17.640Z,8.01
2022-11-07T04:45:17.610Z,8.05
2022-11-07T04:46:17.591Z,8.08
2022-11-07T04:47:17.581Z,8.10
2022-11-07T04:48:17.558Z,8.01
2022-11-07T04:49:17.553Z,8.13
2022-11-07T04:50:17.543Z,8.18
2022-11-07T04:51:17.560Z,8.19
2022-11-07T04:52:17.519Z,8.19
2022-11-07T04:53:17.798Z,8.26
2022-11-07T04:54:17.525Z,8.20
2022-11-07T04:55:17.486Z,8.36
2022-11-07T04:56:17.477Z,8.31
2022-11-07T04:57:17.515Z,8.34
2022-11-07T04:58:17.450Z,8.44
2022-11-07T04:59:17.435Z,8.46
2022-11-07T05:00:17.427Z,8.48
2022-11-07T05:01:17.420Z,8.60
2022-11-07T05:02:17.550Z,8.60
2022-11-07T05:03:17.910Z,8.55
2022-11-07T05:04:17.383Z,8.53
2022-11-07T05:05:17.367Z,8.56
2022-11-07T05:06:17.405Z,8.55
2022-11-07T05:07:17.347Z,8.67
2022-11-07T05:08:17.339Z,8.70
2022-11-07T05:09:17.338Z,8.71
2022-11-07T05:10:17.333Z,8.70
2022-11-07T05:11:17.300Z,8.64
2022-11-07T05:12:17.297Z,8.60
2022-11-07T05:13:17.550Z,8.74
2022-11-07T05:14:17.271Z,8.74
2022-11-07T05:15:17.297Z,8.76
2022-11-07T05:16:17.277Z,8.67
2022-11-07T05:17:17.239Z,8.79
2022-11-07T05:18:17.222Z,8.79
2022-11-07T05:19:17.214Z,8.81
2022-11-07T05:20:17.208Z,8.81
2022-11-07T05:21:17.241Z,8.79
2022-11-07T05:22:17.179Z,8.89
2022-11-07T05:23:17.666Z,8.88
2022-11-07T05:24:17.184Z,8.91
2022-11-07T05:25:17.142Z,8.89
2022-11-07T05:26:17.181Z,8.87
2022-11-07T05:27:17.204Z,8.85
2022-11-07T05:28:17.144Z,8.87
2022-11-07T05:29:17.099Z,8.89
2022-11-07T05:30:17.088Z,8.92
2022-11-07T05:31:17.084Z,8.97
2022-11-07T05:32:17.061Z,9.00
2022-11-07T05:33:17.393Z,9.04
2022-11-07T05:34:17.042Z,9.02
2022-11-07T05:35:17.031Z,9.11
2022-11-07T05:36:17.034Z,9.16
2022-11-07T05:37:17.049Z,9.13
2022-11-07T05:38:17.003Z,9.21
2022-11-07T05:39:17.016Z,9.22
2022-11-07T05:40:16.976Z,9.14
2022-11-07T05:41:16.970Z,9.23
2022-11-07T05:42:16.995Z,9.28
2022-11-07T05:43:17.255Z,9.28
2022-11-07T05:44:16.927Z,9.36
2022-11-07T05:45:16.931Z,9.37
2022-11-07T05:46:16.914Z,9.36
2022-11-07T05:47:16.909Z,9.39
2022-11-07T05:48:16.891Z,9.44
2022-11-07T05:49:16.877Z,9.44
2022-11-07T05:50:16.969Z,9.48
2022-11-07T05:51:16.864Z,9.46
2022-11-07T05:52:16.864Z,9.50
2022-11-07T05:53:17.298Z,9.55
2022-11-07T05:54:16.842Z,9.54
2022-11-07T05:55:16.811Z,9.51
2022-11-07T05:56:16.796Z,9.58
2022-11-07T05:57:16.835Z,9.58
2022-11-07T05:58:16.811Z,9.66
2022-11-07T05:59:16.766Z,9.61
2022-11-07T06:00:16.756Z,9.62
2022-11-07T06:01:16.742Z,9.61
2022-11-07T06:02:16.937Z,9.68
2022-11-07T06:03:17.148Z,9.69
2022-11-07T06:04:16.732Z,9.73
2022-11-07T06:05:19.356Z,9.80
2022-11-07T06:06:17.680Z,9.80
2022-11-07T06:07:16.676Z,9.79
2022-11-07T06:08:16.663Z,9.91
2022-11-07T06:09:16.686Z,10.02
2022-11-07T06:10:16.641Z,9.97
2022-11-07T06:11:16.626Z,10.04
2022-11-07T06:12:16.616Z,10.02
2022-11-07T06:13:17.293Z,10.05
2022-11-07T06:14:16.619Z,10.05
2022-11-07T06:15:16.613Z,10.09
2022-11-07T06:16:16.572Z,10.05
2022-11-07T06:17:16.559Z,10.04
2022-11-07T06:18:16.553Z,10.07
2022-11-07T06:19:16.557Z,10.02
2022-11-07T06:20:16.531Z,10.17
2022-11-07T06:21:16.550Z,10.17
2022-11-07T06:22:16.511Z,10.17
2022-11-07T06:23:17.013Z,10.25
2022-11-07T06:24:16.483Z,10.23
2022-11-07T06:25:16.467Z,10.17
2022-11-07T06:26:16.467Z,10.34
2022-11-07T06:27:16.465Z,10.33
2022-11-07T06:28:16.456Z,10.34
2022-11-07T06:29:16.428Z,10.34
2022-11-07T06:30:16.462Z,10.34
2022-11-07T06:31:16.429Z,10.48
2022-11-07T06:32:16.394Z,10.48
2022-11-07T06:33:16.916Z,10.49
2022-11-07T06:34:16.371Z,10.54
2022-11-07T06:35:16.388Z,10.51
2022-11-07T06:36:16.352Z,10.54
2022-11-07T06:37:16.339Z,10.59
2022-11-07T06:38:16.402Z,10.61
2022-11-07T06:39:16.395Z,10.71
2022-11-07T06:40:16.309Z,10.74
2022-11-07T06:41:16.296Z,10.86
2022-11-07T06:42:16.367Z,10.81
2022-11-07T06:43:16.628Z,10.90
2022-11-07T06:44:16.874Z,10.99
2022-11-07T06:45:16.263Z,11.04
2022-11-07T06:46:16.254Z,11.05
2022-11-07T06:47:16.227Z,11.14
2022-11-07T06:48:16.217Z,11.15
2022-11-07T06:49:16.203Z,11.25
2022-11-07T06:50:16.199Z,11.37
2022-11-07T06:51:16.223Z,11.40
2022-11-07T06:52:16.169Z,11.44
2022-11-07T06:53:16.487Z,11.63
2022-11-07T06:54:16.148Z,11.57
2022-11-07T06:55:16.148Z,11.68
2022-11-07T06:56:16.120Z,11.86
2022-11-07T06:57:16.237Z,11.87
2022-11-07T06:58:18.326Z,11.87
2022-11-07T06:59:16.090Z,11.95
2022-11-07T07:00:16.822Z,12.10
2022-11-07T07:01:16.178Z,12.10
2022-11-07T07:02:30.803Z,12.04
2022-11-07T07:03:17.448Z,12.12
2022-11-07T07:04:16.086Z,12.04
2022-11-07T07:05:20.927Z,12.12
2022-11-07T07:06:17.962Z,12.17
2022-11-07T07:07:16.069Z,12.13
2022-11-07T07:08:15.995Z,12.20
2022-11-07T07:09:16.070Z,12.15
2022-11-07T07:10:15.988Z,12.20
2022-11-07T07:11:15.962Z,12.29
2022-11-07T07:12:15.948Z,12.27
2022-11-07T07:13:16.338Z,12.31
2022-11-07T07:14:15.919Z,12.36
2022-11-07T07:15:15.956Z,12.49
2022-11-07T07:16:16.880Z,12.57
2022-11-07T07:17:15.897Z,12.54
2022-11-07T07:18:15.991Z,12.58
2022-11-07T07:19:15.867Z,12.68
2022-11-07T07:20:15.854Z,12.82
2022-11-07T07:21:15.855Z,12.85
2022-11-07T07:22:15.831Z,12.83
2022-11-07T07:23:15.917Z,13.03
2022-11-07T07:24:15.821Z,13.03
2022-11-07T07:25:15.921Z,13.18
2022-11-07T07:26:15.803Z,13.27
2022-11-07T07:27:15.884Z,13.37
2022-11-07T07:28:15.763Z,13.38
2022-11-07T07:29:15.751Z,13.33
2022-11-07T07:30:15.968Z,13.50
2022-11-07T07:31:15.737Z,13.57
2022-11-07T07:40:04.747Z,13.57
2022-11-07T07:41:04.607Z,13.52
2022-11-07T07:42:04.619Z,13.56
2022-11-07T07:43:04.589Z,13.62
2022-11-07T07:44:04.648Z,13.71
2022-11-07T07:45:04.560Z,13.68
2022-11-07T07:46:04.598Z,13.83
2022-11-07T07:47:09.916Z,13.78
2022-11-07T07:48:05.571Z,13.81
2022-11-07T07:49:04.515Z,13.83
2022-11-07T07:50:04.529Z,13.92
2022-11-07T07:51:04.521Z,13.90
2022-11-07T07:52:04.512Z,13.89
2022-11-07T07:53:08.839Z,13.90
2022-11-07T07:54:04.489Z,14.07
2022-11-07T07:55:04.452Z,14.05
2022-11-07T07:56:04.553Z,14.08
2022-11-07T07:57:04.420Z,13.97
2022-11-07T07:58:04.435Z,14.03
2022-11-07T07:59:04.398Z,13.97
2022-11-07T08:00:05.104Z,13.95
2022-11-07T08:01:04.425Z,13.87
2022-11-07T08:02:04.496Z,13.81
2022-11-07T08:03:04.385Z,13.86
2022-11-07T08:04:04.365Z,13.85
2022-11-07T08:05:04.343Z,13.85
2022-11-07T08:06:04.327Z,13.78
2022-11-07T08:07:04.315Z,13.78
2022-11-07T08:08:04.311Z,13.89
2022-11-07T08:09:04.299Z,13.75
2022-11-07T08:10:26.986Z,13.81
2022-11-07T08:11:05.286Z,13.70
2022-11-07T08:12:04.377Z,13.89
2022-11-07T08:13:04.256Z,13.89
2022-11-07T08:14:04.238Z,13.93
2022-11-07T08:15:04.221Z,13.89
2022-11-07T08:16:04.275Z,13.90
2022-11-07T08:17:04.221Z,13.89
2022-11-07T08:18:04.232Z,13.90
2022-11-07T08:19:04.182Z,13.86
2022-11-07T08:20:04.186Z,13.87
2022-11-07T08:21:04.164Z,13.89
2022-11-07T08:22:04.231Z,13.90
2022-11-07T08:23:04.140Z,13.86
2022-11-07T08:24:04.134Z,13.81
2022-11-07T08:25:04.110Z,13.96
2022-11-07T08:26:04.113Z,13.89
2022-11-07T08:27:04.099Z,13.89
2022-11-07T08:28:04.311Z,13.72
2022-11-07T08:29:04.193Z,13.77
2022-11-07T08:30:04.060Z,13.78
2022-11-07T08:31:04.567Z,13.68
2022-11-07T08:32:04.137Z,13.70
2022-11-07T08:33:05.096Z,13.71
2022-11-07T08:34:04.253Z,13.70
2022-11-07T08:35:04.023Z,13.59
2022-11-07T08:36:03.993Z,13.57
2022-11-07T08:37:04.134Z,13.56
2022-11-07T08:38:04.528Z,13.59
2022-11-07T08:39:03.982Z,13.59
2022-11-07T08:40:04.163Z,13.53
2022-11-07T08:41:05.570Z,13.54
2022-11-07T08:42:04.024Z,13.50
2022-11-07T08:43:03.937Z,13.44
2022-11-07T08:44:03.980Z,13.49
2022-11-07T08:45:03.891Z,13.46
2022-11-07T08:46:03.963Z,13.42
2022-11-07T08:47:08.316Z,13.46
2022-11-07T08:48:04.026Z,13.31
2022-11-07T08:49:03.875Z,13.33
2022-11-07T08:51:19.057Z,13.16
2022-11-07T08:52:19.032Z,13.05
2022-11-07T08:53:19.364Z,12.98
2022-11-07T08:54:19.025Z,12.90
2022-11-07T08:55:19.188Z,12.95
2022-11-07T08:56:18.998Z,12.90
2022-11-07T08:57:18.986Z,12.85
2022-11-07T08:58:19.034Z,12.90
2022-11-07T08:59:18.980Z,12.90
2022-11-07T09:00:18.982Z,12.90
2022-11-07T09:01:19.277Z,12.87
2022-11-07T09:03:50.131Z,12.97
2022-11-07T09:04:20.069Z,12.95
2022-11-07T09:05:19.103Z,12.94
2022-11-07T09:06:18.861Z,13.03
2022-11-07T09:07:18.866Z,13.00
2022-11-07T09:08:19.016Z,13.01
2022-11-07T09:09:18.922Z,13.03
2022-11-07T09:10:18.984Z,13.08
2022-11-07T09:11:19.119Z,13.09
2022-11-07T09:12:18.854Z,13.04
2022-11-07T09:13:19.288Z,13.08
2022-11-07T09:22:40.017Z,12.60
2022-11-07T09:23:39.969Z,12.58
2022-11-07T09:24:39.940Z,12.61
2022-11-07T09:25:39.955Z,12.60
2022-11-07T09:26:39.913Z,12.60
2022-11-07T09:27:39.902Z,12.64
2022-11-07T09:28:40.031Z,12.70
2022-11-07T09:29:39.884Z,12.80
2022-11-07T09:30:39.907Z,12.75
2022-11-07T09:31:39.863Z,12.87
2022-11-07T09:32:46.966Z,12.79
2022-11-07T09:33:40.908Z,12.79
2022-11-07T09:34:39.857Z,12.82
2022-11-07T09:35:39.822Z,12.91
2022-11-07T09:39:55.571Z,12.93
2022-11-07T09:40:55.401Z,12.85
2022-11-07T09:41:55.385Z,12.78
2022-11-07T09:42:55.374Z,12.79
2022-11-07T09:43:55.377Z,12.85
2022-11-07T09:44:55.355Z,12.90
2022-11-07T09:45:55.392Z,12.87
2022-11-07T09:46:55.342Z,12.95
2022-11-07T09:47:55.326Z,12.95
2022-11-07T09:48:55.302Z,13.00
2022-11-07T09:49:55.321Z,13.00
2022-11-07T09:50:55.288Z,13.03
2022-11-07T09:51:55.289Z,13.01
2022-11-07T09:52:55.266Z,13.05
2022-11-07T09:53:55.362Z,13.03
2022-11-07T09:54:55.237Z,12.98
2022-11-07T09:55:55.259Z,13.08
2022-11-07T09:56:55.213Z,13.13
2022-11-07T09:57:55.237Z,12.98
2022-11-07T09:58:55.266Z,13.09
2022-11-07T09:59:55.191Z,13.11
2022-11-07T10:00:55.222Z,13.09
2022-11-07T10:01:55.232Z,13.05
2022-11-07T10:02:55.149Z,13.08
2022-11-07T10:04:56.125Z,13.16
2022-11-07T10:05:55.119Z,13.15
2022-11-07T10:06:55.155Z,13.27
2022-11-07T10:07:55.095Z,13.15
2022-11-07T10:08:55.081Z,13.30
2022-11-07T10:09:55.086Z,13.27
2022-11-07T10:10:55.074Z,13.16
2022-11-07T10:11:55.113Z,13.19
2022-11-07T10:12:55.036Z,13.20
2022-11-07T10:13:55.032Z,13.20
2022-11-07T10:14:55.019Z,13.20
2022-11-07T10:15:55.059Z,13.20
2022-11-07T10:16:54.991Z,13.23
2022-11-07T10:17:54.977Z,13.18
2022-11-07T10:18:55.138Z,13.16
2022-11-07T10:19:54.961Z,13.19
2022-11-07T10:21:16.044Z,13.23
2022-11-07T10:21:57.192Z,13.22
2022-11-07T10:22:54.924Z,13.25
2022-11-07T10:23:54.914Z,13.23
2022-11-07T10:24:54.896Z,13.22
2022-11-07T10:25:54.894Z,13.27
2022-11-07T10:26:54.936Z,13.28
2022-11-07T10:27:55.035Z,13.28
2022-11-07T10:31:49.083Z,13.19
2022-11-07T10:32:49.105Z,13.15
2022-11-07T10:33:49.076Z,13.16
2022-11-07T10:34:54.187Z,13.15
2022-11-07T10:35:50.049Z,13.27
2022-11-07T10:36:49.025Z,13.28
2022-11-07T10:37:49.034Z,13.27
2022-11-07T10:38:49.005Z,13.27
2022-11-07T10:39:49.090Z,13.39
2022-11-07T10:40:48.980Z,13.44
2022-11-07T10:41:48.964Z,13.52
2022-11-07T10:42:49.012Z,13.53
2022-11-07T10:43:48.981Z,13.57
2022-11-07T10:44:49.843Z,13.65
2022-11-07T10:45:48.958Z,13.65
2022-11-07T10:46:51.632Z,13.71
2022-11-07T10:47:49.903Z,13.70
2022-11-07T10:48:48.886Z,13.71
2022-11-07T10:49:48.881Z,13.75
2022-11-07T10:50:48.862Z,13.78
2022-11-07T10:51:48.951Z,13.72
2022-11-07T10:52:48.846Z,13.81
2022-11-07T10:53:48.844Z,13.72
2022-11-07T10:54:48.819Z,13.90
2022-11-07T10:55:48.810Z,13.90
2022-11-07T10:56:48.804Z,13.87
2022-11-07T10:57:48.871Z,13.87
2022-11-07T10:58:49.354Z,13.87
2022-11-07T10:59:48.823Z,13.87
2022-11-07T11:00:48.817Z,13.92
2022-11-07T11:01:48.809Z,13.89
2022-11-07T11:02:48.805Z,13.97
2022-11-07T11:03:48.766Z,13.89
2022-11-07T11:04:50.944Z,13.87
2022-11-07T11:05:48.717Z,13.92
2022-11-07T11:06:48.677Z,13.90
2022-11-07T11:07:48.681Z,13.77
2022-11-07T11:08:48.661Z,13.83
2022-11-07T11:09:48.669Z,13.85
2022-11-07T11:10:48.639Z,13.81
2022-11-07T11:11:48.627Z,13.85
2022-11-07T11:12:48.617Z,13.85
2022-11-07T11:13:48.603Z,13.92
2022-11-07T11:14:48.664Z,13.92
2022-11-07T11:15:48.639Z,14.03
2022-11-07T11:16:48.635Z,13.90
2022-11-07T11:17:48.619Z,14.10
2022-11-07T11:18:48.554Z,14.05
2022-11-07T11:19:48.534Z,14.10
2022-11-07T11:20:48.533Z,14.17
2022-11-07T11:21:48.876Z,14.14
2022-11-07T11:22:48.504Z,14.17
2022-11-07T11:23:48.509Z,14.10
2022-11-07T11:24:48.486Z,14.11
2022-11-07T11:25:48.473Z,14.12
2022-11-07T11:26:48.458Z,14.04
2022-11-07T11:27:48.479Z,14.11
2022-11-07T11:28:48.443Z,14.05
2022-11-07T11:29:48.425Z,14.05
2022-11-07T11:30:48.434Z,14.07
2022-11-07T11:31:48.425Z,14.00
2022-11-07T11:32:48.393Z,13.89
2022-11-07T11:33:48.417Z,13.95
2022-11-07T11:34:48.368Z,13.86
2022-11-07T11:35:48.354Z,13.90
2022-11-07T11:36:48.348Z,13.89
2022-11-07T11:37:48.331Z,13.90
2022-11-07T11:38:48.321Z,13.85
2022-11-07T11:39:48.325Z,13.90
2022-11-07T11:40:48.299Z,13.79
2022-11-07T11:41:48.294Z,13.85
2022-11-07T11:42:48.281Z,13.86
2022-11-07T11:43:48.302Z,13.75
2022-11-07T11:44:48.253Z,13.86
2022-11-07T11:45:48.284Z,13.81
2022-11-07T11:46:48.230Z,13.93
2022-11-07T11:47:48.301Z,13.79
2022-11-07T11:48:48.213Z,13.90
2022-11-07T11:49:48.233Z,13.99
2022-11-07T11:50:48.184Z,14.04
2022-11-07T11:51:48.186Z,14.00
2022-11-07T11:52:48.165Z,14.11
2022-11-07T11:53:48.150Z,14.15
2022-11-07T11:54:48.143Z,14.14
2022-11-07T11:55:52.018Z,14.15
2022-11-07T11:56:48.112Z,14.29
2022-11-07T11:57:48.138Z,14.32
2022-11-07T11:58:48.092Z,14.29
2022-11-07T11:59:48.081Z,14.30
2022-11-07T12:00:48.067Z,14.33
2022-11-07T12:01:48.127Z,14.41
2022-11-07T12:02:48.106Z,14.41
2022-11-07T12:03:48.091Z,14.44
2022-11-07T12:04:48.028Z,14.48
2022-11-07T12:05:48.014Z,14.45
2022-11-07T12:06:48.037Z,14.44
2022-11-07T12:07:47.994Z,14.33
2022-11-07T12:08:48.001Z,14.43
2022-11-07T12:09:47.990Z,14.35
2022-11-07T12:10:47.979Z,14.36
2022-11-07T12:11:47.944Z,14.32
2022-11-07T12:12:48.015Z,14.25
2022-11-07T12:13:47.925Z,14.20
2022-11-07T12:14:50.587Z,14.15
2022-11-07T12:15:48.917Z,14.11
2022-11-07T12:16:47.891Z,14.08
2022-11-07T12:17:47.873Z,14.07
2022-11-07T12:18:47.866Z,13.96
2022-11-07T12:19:47.911Z,13.99
2022-11-07T12:20:47.843Z,13.95
2022-11-07T12:21:48.754Z,13.89
2022-11-07T12:22:47.820Z,13.87
2022-11-07T12:23:47.815Z,13.85
2022-11-07T12:24:47.796Z,13.87
2022-11-07T12:25:47.786Z,13.86
2022-11-07T12:26:47.782Z,13.92
2022-11-07T12:27:47.807Z,13.81
2022-11-07T12:28:47.771Z,13.83
2022-11-07T12:29:47.738Z,13.85
2022-11-07T12:30:47.790Z,13.81
2022-11-07T12:31:47.726Z,13.90
2022-11-07T12:32:47.704Z,13.85
2022-11-07T12:33:47.734Z,13.85
2022-11-07T12:34:47.685Z,13.86
2022-11-07T12:35:47.695Z,13.83
2022-11-07T12:36:47.663Z,13.90
2022-11-07T12:37:47.653Z,13.83
2022-11-07T12:38:47.781Z,13.99
2022-11-07T12:39:47.644Z,13.85
2022-11-07T12:40:47.608Z,13.89
2022-11-07T12:41:47.602Z,13.93
2022-11-07T12:42:47.597Z,13.87
2022-11-07T12:43:47.603Z,13.89
2022-11-07T12:44:47.571Z,13.95
2022-11-07T12:45:47.567Z,13.86
2022-11-07T12:46:47.557Z,13.90
2022-11-07T12:47:47.539Z,13.89
2022-11-07T12:48:47.521Z,13.90
2022-11-07T12:49:47.543Z,13.95
2022-11-07T12:50:47.502Z,13.95
2022-11-07T12:51:47.548Z,13.93
2022-11-07T12:52:47.474Z,14.03
2022-11-07T12:53:47.468Z,13.99
2022-11-07T12:54:47.462Z,14.03
2022-11-07T12:55:47.447Z,14.07
2022-11-07T12:56:47.474Z,14.14
2022-11-07T12:57:47.519Z,14.23
2022-11-07T12:58:47.408Z,14.26
2022-11-07T12:59:47.394Z,14.26
2022-11-07T13:00:47.398Z,14.32
2022-11-07T13:01:47.525Z,14.43
2022-11-07T13:02:47.367Z,14.33
2022-11-07T13:03:47.452Z,14.44
2022-11-07T13:04:47.344Z,14.51
2022-11-07T13:05:47.349Z,14.45
2022-11-07T13:06:47.315Z,14.45
2022-11-07T13:07:47.359Z,14.55
2022-11-07T13:08:47.295Z,14.53
2022-11-07T13:09:47.316Z,14.54
2022-11-07T13:10:47.294Z,14.58
2022-11-07T13:11:47.260Z,14.55
2022-11-07T13:12:47.248Z,14.58
2022-11-07T13:13:47.240Z,14.58
2022-11-07T13:14:47.238Z,14.58
2022-11-07T13:16:14.093Z,14.63
2022-11-07T13:16:48.205Z,14.58
2022-11-07T13:17:47.209Z,14.58
2022-11-07T13:18:47.341Z,14.60
2022-11-07T13:19:47.176Z,14.58
2022-11-07T13:20:47.154Z,14.63
2022-11-07T13:21:47.178Z,14.63
2022-11-07T13:22:47.174Z,14.58
2022-11-07T13:23:47.149Z,14.59
2022-11-07T13:24:47.116Z,14.60
2022-11-07T13:25:47.135Z,14.53
2022-11-07T13:26:48.182Z,14.59
2022-11-07T13:27:47.165Z,14.55
2022-11-07T13:28:47.067Z,14.44
2022-11-07T13:29:47.086Z,14.54